createdAt,value
2022-11-09T00:00:50.248Z,14.32
2022-11-09T00:03:17.489Z,13.50
2022-11-09T00:05:54.101Z,17.30
2022-11-09T00:08:20.897Z,19.23
2022-11-09T00:10:47.644Z,18.77
2022-11-09T00:13:14.502Z,16.55
2022-11-09T00:15:41.269Z,15.82
2022-11-09T00:18:08.077Z,14.77
2022-11-09T00:20:34.952Z,18.92
2022-11-09T00:23:01.891Z,19.38
2022-11-09T00:25:28.686Z,20.27
2022-11-09T00:27:55.525Z,16.65
2022-11-09T00:30:22.295Z,14.57
2022-11-09T00:32:49.246Z,22.52
2022-11-09T00:35:16.166Z,17.50
2022-11-09T00:37:42.993Z,14.20
2022-11-09T00:40:11.194Z,22.05
2022-11-09T00:42:38.124Z,21.23
2022-11-09T00:45:05.198Z,9.48
2022-11-09T00:47:33.095Z,19.42
2022-11-09T00:49:59.955Z,15.15
2022-11-09T00:52:26.801Z,15.10
2022-11-09T00:54:53.626Z,13.73
2022-11-09T00:57:20.571Z,15.95
2022-11-09T00:59:47.428Z,19.30
2022-11-09T01:02:14.271Z,16.90
2022-11-09T01:04:41.099Z,14.88
2022-11-09T01:07:08.748Z,14.38
2022-11-09T01:09:35.661Z,14.38
2022-11-09T01:12:02.693Z,12.70
2022-11-09T01:14:29.552Z,17.02
2022-11-09T01:16:56.429Z,13.70
2022-11-09T01:19:26.034Z,16.90
2022-11-09T01:21:53.080Z,13.43
2022-11-09T01:24:20.794Z,13.80
2022-11-09T01:26:48.157Z,17.83
2022-11-09T01:29:14.910Z,14.52
2022-11-09T01:31:42.830Z,15.80
2022-11-09T01:34:09.648Z,13.65
2022-11-09T01:36:36.451Z,17.63
2022-11-09T01:39:03.274Z,12.48
2022-11-09T01:41:30.163Z,13.63
2022-11-09T01:44:15.497Z,14.43
2022-11-09T01:47:01.751Z,11.18
2022-11-09T01:49:52.743Z,12.30
2022-11-09T01:52:24.538Z,12.13
2022-11-09T01:54:58.678Z,15.20
2022-11-09T01:57:30.350Z,13.02
2022-11-09T02:00:05.343Z,16.85
2022-11-09T02:02:44.702Z,19.33
2022-11-09T02:05:17.269Z,14.15
2022-11-09T02:07:46.684Z,18.07
2022-11-09T02:10:32.842Z,12.60
2022-11-09T02:13:01.976Z,12.32
2022-11-09T02:15:29.404Z,11.07
2022-11-09T02:17:58.281Z,16.20
2022-11-09T02:20:26.030Z,14.15
2022-11-09T02:22:52.964Z,15.25
2022-11-09T02:25:21.310Z,10.27
2022-11-09T02:27:50.463Z,14.48
2022-11-09T02:30:20.963Z,20.10
2022-11-09T02:32:48.830Z,10.95
2022-11-09T02:35:15.913Z,9.98
2022-11-09T02:37:47.987Z,13.32
2022-11-09T02:40:23.225Z,8.88
2022-11-09T02:42:50.077Z,11.35
2022-11-09T02:45:17.059Z,9.52
2022-11-09T02:47:44.207Z,18.38
2022-11-09T02:50:11.170Z,16.00
2022-11-09T02:52:38.047Z,14.15
2022-11-09T02:55:05.201Z,15.10
2022-11-09T02:57:33.267Z,10.02
2022-11-09T03:00:01.399Z,11.27
2022-11-09T03:02:29.306Z,11.32
2022-11-09T03:04:56.202Z,11.73
2022-11-09T03:07:23.377Z,12.90
2022-11-09T03:09:50.383Z,11.57
2022-11-09T03:12:30.428Z,11.95
2022-11-09T03:15:08.858Z,15.60
2022-11-09T03:17:39.002Z,8.95
2022-11-09T03:20:06.614Z,12.05
2022-11-09T03:22:33.883Z,10.75
2022-11-09T03:25:01.682Z,12.32
2022-11-09T03:27:28.833Z,10.70
2022-11-09T03:29:55.751Z,8.00
2022-11-09T03:32:22.676Z,15.07
2022-11-09T03:34:51.528Z,10.20
2022-11-09T03:37:19.336Z,14.18
2022-11-09T03:39:46.249Z,12.13
2022-11-09T03:42:13.003Z,11.55
2022-11-09T03:44:40.352Z,11.18
2022-11-09T03:47:07.159Z,14.95
2022-11-09T03:49:34.084Z,11.30
2022-11-09T03:52:01.011Z,13.60
2022-11-09T03:54:27.857Z,14.18
2022-11-09T03:56:54.749Z,18.08
2022-11-09T03:59:21.663Z,12.57
2022-11-09T04:01:48.522Z,13.40
2022-11-09T04:04:15.432Z,11.77
2022-11-09T04:06:42.326Z,12.18
2022-11-09T04:09:10.489Z,15.50
2022-11-09T04:11:37.314Z,15.10
2022-11-09T04:14:05.414Z,15.15
2022-11-09T04:16:33.192Z,16.90
2022-11-09T04:19:00.212Z,14.25
2022-11-09T04:21:27.016Z,14.30
2022-11-09T04:23:53.826Z,15.82
2022-11-09T04:26:20.566Z,15.30
2022-11-09T04:28:47.382Z,19.52
2022-11-09T04:31:14.164Z,17.33
2022-11-09T04:33:40.969Z,18.38
2022-11-09T04:36:08.448Z,14.00
2022-11-09T04:38:36.503Z,15.00
2022-11-09T04:41:04.710Z,16.45
2022-11-09T04:43:31.790Z,13.63
2022-11-09T04:46:02.775Z,18.13
2022-11-09T04:48:30.976Z,12.73
2022-11-09T04:51:06.058Z,14.60
2022-11-09T04:53:34.092Z,10.27
2022-11-09T04:56:01.387Z,12.85
2022-11-09T04:58:28.371Z,13.35
2022-11-09T05:00:55.662Z,20.10
2022-11-09T05:03:22.823Z,16.38
2022-11-09T05:05:49.798Z,20.77
2022-11-09T05:08:16.653Z,10.35
2022-11-09T05:10:43.447Z,11.77
2022-11-09T05:13:12.218Z,13.43
2022-11-09T05:15:39.722Z,14.40
2022-11-09T05:18:07.527Z,14.13
2022-11-09T05:20:35.830Z,16.48
2022-11-09T05:23:21.870Z,18.65
2022-11-09T05:25:49.127Z,16.10
2022-11-09T05:28:15.880Z,15.50
2022-11-09T05:30:42.809Z,11.30
2022-11-09T05:33:09.803Z,22.27
2022-11-09T05:35:36.636Z,18.45
2022-11-09T05:38:03.475Z,15.93
2022-11-09T05:40:30.360Z,21.50
2022-11-09T05:42:57.179Z,19.85
2022-11-09T05:45:42.079Z,17.35
2022-11-09T05:48:11.525Z,21.60
2022-11-09T05:50:39.150Z,18.60
2022-11-09T05:53:12.923Z,21.10
2022-11-09T05:55:39.747Z,18.20
2022-11-09T05:58:06.661Z,13.13
2022-11-09T06:00:34.067Z,16.80
2022-11-09T06:03:06.023Z,14.65
2022-11-09T06:05:34.292Z,21.17
2022-11-09T06:08:06.715Z,22.73
2022-11-09T06:10:33.795Z,18.42
2022-11-09T06:13:00.940Z,27.10
2022-11-09T06:15:28.049Z,17.58
2022-11-09T06:17:56.107Z,19.08
2022-11-09T06:20:24.509Z,16.00
2022-11-09T06:22:58.640Z,18.38
2022-11-09T06:25:28.723Z,20.77
2022-11-09T06:27:56.309Z,17.88
2022-11-09T06:30:23.238Z,21.02
2022-11-09T06:32:51.043Z,17.50
2022-11-09T06:35:17.926Z,20.25
2022-11-09T06:37:44.677Z,15.05
2022-11-09T06:40:12.644Z,18.63
2022-11-09T06:42:39.485Z,17.25
2022-11-09T06:45:06.911Z,17.55
2022-11-09T06:47:33.699Z,17.83
2022-11-09T06:50:00.525Z,14.10
2022-11-09T06:52:27.293Z,27.95
2022-11-09T06:54:54.158Z,13.45
2022-11-09T06:57:20.906Z,27.58
2022-11-09T06:59:47.704Z,17.45
2022-11-09T07:02:17.898Z,15.30
2022-11-09T07:04:44.768Z,12.48
2022-11-09T07:07:11.831Z,18.30
2022-11-09T07:09:38.868Z,15.32
2022-11-09T07:12:05.936Z,26.30
2022-11-09T07:14:32.776Z,16.02
2022-11-09T07:16:59.583Z,14.70
2022-11-09T07:19:26.448Z,15.15
2022-11-09T07:21:53.243Z,18.17
2022-11-09T07:24:20.203Z,16.95
2022-11-09T07:26:48.799Z,17.45
2022-11-09T07:29:16.131Z,15.35
2022-11-09T07:31:42.925Z,14.60
2022-11-09T07:34:09.759Z,26.58
2022-11-09T07:36:39.335Z,22.23
2022-11-09T07:39:06.301Z,16.65
2022-11-09T07:41:34.837Z,18.98
2022-11-09T07:44:02.072Z,16.85
2022-11-09T07:46:28.894Z,19.95
2022-11-09T07:48:55.665Z,17.98
2022-11-09T07:51:22.440Z,18.98
2022-11-09T07:53:49.371Z,11.93
2022-11-09T07:56:16.221Z,16.33
2022-11-09T07:58:43.100Z,19.02
2022-11-09T08:01:11.187Z,14.65
2022-11-09T08:03:38.279Z,21.55
2022-11-09T08:06:05.334Z,19.02
2022-11-09T08:08:32.188Z,18.52
2022-11-09T08:10:58.993Z,12.23
2022-11-09T08:13:26.128Z,17.10
2022-11-09T08:15:53.026Z,16.88
2022-11-09T08:18:21.611Z,13.70
2022-11-09T08:20:49.462Z,30.45
2022-11-09T08:23:18.400Z,14.75
2022-11-09T08:25:45.195Z,17.15
2022-11-09T08:28:15.082Z,16.90
2022-11-09T08:30:44.433Z,19.00
2022-11-09T08:33:12.202Z,22.27
2022-11-09T08:35:39.203Z,19.83
2022-11-09T08:38:06.333Z,12.23
2022-11-09T08:40:34.073Z,18.17
2022-11-09T08:43:03.244Z,15.25
2022-11-09T08:45:32.578Z,15.57
2022-11-09T08:48:00.836Z,19.85
2022-11-09T08:50:29.591Z,22.15
2022-11-09T08:52:56.544Z,15.23
2022-11-09T08:55:23.517Z,16.23
2022-11-09T08:57:54.290Z,18.35
2022-11-09T09:00:21.172Z,16.55
2022-11-09T09:02:48.659Z,22.38
2022-11-09T09:05:16.581Z,16.52
2022-11-09T09:07:43.376Z,15.98
2022-11-09T09:10:10.954Z,15.48
2022-11-09T09:12:38.093Z,12.25
2022-11-09T09:15:05.575Z,17.73
2022-11-09T09:17:33.213Z,19.30
2022-11-09T09:20:00.035Z,14.63
2022-11-09T09:22:26.962Z,12.77
2022-11-09T09:24:53.752Z,22.30
2022-11-09T09:27:20.569Z,16.45
2022-11-09T09:29:47.433Z,23.90
2022-11-09T09:32:14.260Z,19.05
2022-11-09T09:34:41.035Z,21.35
2022-11-09T09:37:07.857Z,18.10
2022-11-09T09:39:34.699Z,25.27
2022-11-09T09:42:06.400Z,4.22
2022-11-09T09:44:54.905Z,14.80
2022-11-09T09:47:33.589Z,8.40
2022-11-09T09:50:25.750Z,2.65
2022-11-09T09:53:23.688Z,7.47
2022-11-09T09:55:57.665Z,6.18
2022-11-09T09:58:30.534Z,8.93
2022-11-09T10:01:16.141Z,10.88
2022-11-09T10:03:43.223Z,17.77
2022-11-09T10:06:40.043Z,16.80
2022-11-09T10:09:23.609Z,18.70
2022-11-09T10:12:01.306Z,15.90
2022-11-09T10:14:43.471Z,22.17
2022-11-09T10:17:32.283Z,16.25
2022-11-09T10:20:19.322Z,19.60
2022-11-09T10:23:04.760Z,19.45
2022-11-09T10:26:02.167Z,22.33
2022-11-09T10:28:34.289Z,20.77
2022-11-09T10:31:17.753Z,16.17
2022-11-09T10:33:49.688Z,21.95
2022-11-09T10:36:24.938Z,11.98
2022-11-09T10:38:56.418Z,15.02
2022-11-09T10:41:47.060Z,14.70
2022-11-09T10:44:32.465Z,11.35
2022-11-09T10:47:18.624Z,15.15
2022-11-09T10:50:11.860Z,7.32
2022-11-09T10:53:10.005Z,10.98
2022-11-09T10:56:20.797Z,10.52
2022-11-09T10:59:32.406Z,9.73
2022-11-09T11:02:26.787Z,11.68
2022-11-09T11:05:19.445Z,10.57
2022-11-09T11:08:29.030Z,12.18
2022-11-09T11:11:33.093Z,8.65
2022-11-09T11:14:34.932Z,10.15
2022-11-09T11:17:21.626Z,6.45
2022-11-09T11:20:27.668Z,8.48
2022-11-09T11:23:26.103Z,7.25
2022-11-09T11:26:25.284Z,10.73
2022-11-09T11:29:34.033Z,9.57
2022-11-09T11:32:20.381Z,9.25
2022-11-09T11:35:22.979Z,6.38
2022-11-09T11:38:27.458Z,8.48
2022-11-09T11:41:21.846Z,8.55
2022-11-09T11:44:19.434Z,10.63
2022-11-09T11:47:36.126Z,7.68
2022-11-09T11:50:27.560Z,10.35
2022-11-09T11:53:25.351Z,5.60
2022-11-09T11:56:36.734Z,7.82
2022-11-09T11:59:44.468Z,7.70
2022-11-09T12:02:48.596Z,9.50
2022-11-09T12:05:56.183Z,8.35
2022-11-09T12:09:00.260Z,7.90
2022-11-09T12:12:00.132Z,8.20
2022-11-09T12:15:04.184Z,9.02
2022-11-09T12:18:00.334Z,5.05
2022-11-09T12:20:45.849Z,7.82
2022-11-09T12:23:40.503Z,6.82
2022-11-09T12:27:04.748Z,8.18
2022-11-09T12:30:09.590Z,13.13
2022-11-09T12:33:02.159Z,7.97
2022-11-09T12:35:58.137Z,10.55
2022-11-09T12:38:46.574Z,6.75
2022-11-09T12:41:36.429Z,9.75
2022-11-09T12:44:29.243Z,14.38
2022-11-09T12:47:20.489Z,12.05
2022-11-09T12:50:06.357Z,10.02
2022-11-09T12:56:15.597Z,9.83
2022-11-09T12:59:29.165Z,9.52
2022-11-09T13:02:33.545Z,10.93
2022-11-09T13:05:38.767Z,12.80
2022-11-09T13:08:29.194Z,11.73
2022-11-09T13:11:17.587Z,15.93
2022-11-09T13:14:21.934Z,13.63
2022-11-09T13:17:28.577Z,10.75
2022-11-09T13:20:56.861Z,11.52
2022-11-09T13:26:49.281Z,11.05
2022-11-09T13:29:40.758Z,5.88
2022-11-09T13:32:35.487Z,11.95
2022-11-09T13:35:42.344Z,16.58
2022-11-09T13:38:30.248Z,12.55
2022-11-09T13:41:31.898Z,10.05
2022-11-09T13:44:27.519Z,11.70
2022-11-09T13:47:36.485Z,13.30
2022-11-09T13:50:27.956Z,12.93
2022-11-09T13:53:31.784Z,17.08
2022-11-09T13:56:39.905Z,11.00
2022-11-09T13:59:39.143Z,10.18
2022-11-09T14:02:26.692Z,11.68
2022-11-09T14:05:30.369Z,12.43
2022-11-09T14:08:33.042Z,12.43
2022-11-09T14:11:27.419Z,11.38
2022-11-09T14:14:27.053Z,16.08
2022-11-09T14:17:20.086Z,12.45
2022-11-09T14:20:29.958Z,8.43
2022-11-09T14:23:18.133Z,12.63
2022-11-09T14:26:17.105Z,12.90
2022-11-09T14:29:20.214Z,11.68
2022-11-09T14:32:25.672Z,12.15
2022-11-09T14:35:19.732Z,13.05
2022-11-09T14:38:24.674Z,14.90
2022-11-09T14:41:22.726Z,18.05
2022-11-09T14:44:16.981Z,14.13
2022-11-09T14:47:03.369Z,17.98
2022-11-09T14:49:49.490Z,13.75
2022-11-09T14:52:35.368Z,11.43
2022-11-09T14:58:13.830Z,17.73
2022-11-09T15:01:20.250Z,18.38
2022-11-09T15:04:11.019Z,16.15
2022-11-09T15:07:01.101Z,15.48
2022-11-09T15:09:49.477Z,14.52
2022-11-09T15:12:39.136Z,16.30
2022-11-09T15:15:29.835Z,12.70
2022-11-09T15:18:23.013Z,12.23
2022-11-09T15:21:13.482Z,7.20
2022-11-09T15:24:08.224Z,10.13
2022-11-09T15:26:54.577Z,10.98
2022-11-09T15:29:42.545Z,11.70
2022-11-09T15:32:32.672Z,13.20
2022-11-09T15:35:18.744Z,11.93
2022-11-09T15:40:49.691Z,10.00
2022-11-09T15:43:35.240Z,10.95
2022-11-09T15:46:32.332Z,12.15
2022-11-09T15:49:22.706Z,13.75
2022-11-09T15:52:11.384Z,16.30
2022-11-09T15:54:57.334Z,14.98
2022-11-09T15:57:44.071Z,12.60
2022-11-09T16:00:29.285Z,11.63
2022-11-09T16:03:17.353Z,14.70
2022-11-09T16:06:02.907Z,15.27
2022-11-09T16:08:49.905Z,15.77
2022-11-09T16:11:35.411Z,15.27
2022-11-09T16:14:22.122Z,19.27
2022-11-09T16:17:07.828Z,15.18
2022-11-09T16:19:53.261Z,13.38
2022-11-09T16:22:38.688Z,15.55
2022-11-09T16:25:24.264Z,29.75
2022-11-09T16:28:10.435Z,11.38
2022-11-09T16:33:41.031Z,21.25
2022-11-09T16:36:26.472Z,19.33
2022-11-09T16:39:16.942Z,13.80
2022-11-09T16:42:07.724Z,18.10
2022-11-09T16:44:57.163Z,16.40
2022-11-09T16:47:56.912Z,12.02
2022-11-09T16:50:42.351Z,13.90
2022-11-09T16:53:28.556Z,19.67
2022-11-09T16:59:00.136Z,15.60
2022-11-09T17:01:58.869Z,12.88
2022-11-09T17:04:44.209Z,16.67
2022-11-09T17:07:29.880Z,13.30
2022-11-09T17:10:15.449Z,16.17
2022-11-09T17:13:00.978Z,12.55
2022-11-09T17:15:48.826Z,9.55
2022-11-09T17:18:34.944Z,16.25
2022-11-09T17:24:06.560Z,14.20
2022-11-09T17:26:52.301Z,13.75
2022-11-09T17:29:38.409Z,18.63
2022-11-09T17:35:12.692Z,17.88
2022-11-09T17:37:58.139Z,15.52
2022-11-09T17:40:43.547Z,17.67
2022-11-09T17:43:33.832Z,13.88
2022-11-09T17:46:21.609Z,15.57
2022-11-09T17:49:09.957Z,17.50
2022-11-09T17:51:55.926Z,14.77
2022-11-09T17:54:41.462Z,10.20
2022-11-09T17:57:26.868Z,12.95
2022-11-09T18:00:13.123Z,15.73
2022-11-09T18:02:58.530Z,18.45
2022-11-09T18:05:45.006Z,17.98
2022-11-09T18:08:30.635Z,21.90
2022-11-09T18:11:17.504Z,16.15
2022-11-09T18:14:03.457Z,18.45
2022-11-09T18:16:48.817Z,17.77
2022-11-09T18:19:34.232Z,19.73
2022-11-09T18:22:19.877Z,17.88
2022-11-09T18:25:05.740Z,17.48
2022-11-09T18:27:52.386Z,25.05
2022-11-09T18:30:41.603Z,17.40
2022-11-09T18:33:28.105Z,17.20
2022-11-09T18:36:18.519Z,23.70
2022-11-09T18:39:04.806Z,18.10
2022-11-09T18:41:50.539Z,22.27
2022-11-09T18:44:35.745Z,19.38
2022-11-09T18:47:21.158Z,15.77
2022-11-09T18:50:07.017Z,19.60
2022-11-09T18:52:52.384Z,23.75
2022-11-09T18:55:37.911Z,23.92
2022-11-09T18:58:23.671Z,18.95
2022-11-09T19:01:09.513Z,16.73
2022-11-09T19:03:59.390Z,19.15
2022-11-09T19:06:46.393Z,19.08
2022-11-09T19:09:35.508Z,19.58
2022-11-09T19:12:21.413Z,14.65
2022-11-09T19:15:07.075Z,31.40
2022-11-09T19:20:38.912Z,25.33
2022-11-09T19:23:28.480Z,22.20
2022-11-09T19:26:18.624Z,20.85
2022-11-09T19:29:04.114Z,22.88
2022-11-09T19:31:49.439Z,27.70
2022-11-09T19:34:34.606Z,25.77
2022-11-09T19:37:20.178Z,20.65
2022-11-09T19:40:06.564Z,29.92
2022-11-09T19:42:51.935Z,20.52
2022-11-09T19:45:43.488Z,20.55
2022-11-09T19:48:28.911Z,18.83
2022-11-09T19:51:15.941Z,29.20
2022-11-09T19:54:02.872Z,28.98
2022-11-09T19:56:48.292Z,30.15
2022-11-09T19:59:33.391Z,28.98
2022-11-09T20:02:19.265Z,20.65
2022-11-09T20:05:05.244Z,25.65
2022-11-09T20:07:50.765Z,20.38
2022-11-09T20:10:37.731Z,19.95
2022-11-09T20:13:24.688Z,24.20
2022-11-09T20:16:10.559Z,30.25
2022-11-09T20:21:42.006Z,25.13
2022-11-09T20:24:27.640Z,24.27
2022-11-09T20:27:12.885Z,31.33
2022-11-09T20:29:58.447Z,24.63
2022-11-09T20:32:43.940Z,18.10
2022-11-09T20:35:29.613Z,26.85
2022-11-09T20:38:15.007Z,31.70
2022-11-09T20:41:02.585Z,20.13
2022-11-09T20:43:48.096Z,31.77
2022-11-09T20:46:36.602Z,25.05
2022-11-09T20:49:22.833Z,32.75
2022-11-09T20:52:08.016Z,30.02
2022-11-09T20:54:53.530Z,25.58
2022-11-09T20:57:38.978Z,25.25
2022-11-09T21:00:24.848Z,23.17
2022-11-09T21:03:10.645Z,21.02
2022-11-09T21:05:59.336Z,22.83
2022-11-09T21:08:50.084Z,28.00
2022-11-09T21:11:36.031Z,26.08
2022-11-09T21:14:21.504Z,26.70
2022-11-09T21:17:06.775Z,23.63
2022-11-09T21:19:52.249Z,27.25
2022-11-09T21:23:03.674Z,28.42
2022-11-09T21:26:07.758Z,30.20
2022-11-09T21:29:11.526Z,39.63
2022-11-09T21:31:56.917Z,24.00
2022-11-09T21:34:42.401Z,25.02
2022-11-09T21:37:28.140Z,25.63
2022-11-09T21:40:13.456Z,24.88
2022-11-09T21:42:59.292Z,30.35
2022-11-09T21:45:49.757Z,30.70
2022-11-09T21:48:34.990Z,24.63
2022-11-09T21:51:20.771Z,27.73
2022-11-09T21:54:07.859Z,29.80
2022-11-09T21:56:53.521Z,33.20
2022-11-09T21:59:39.017Z,35.08
2022-11-09T22:02:24.295Z,24.92
2022-11-09T22:05:10.402Z,33.20
2022-11-09T22:07:55.535Z,32.65
2022-11-09T22:10:41.233Z,37.67
2022-11-09T22:13:45.107Z,30.10
2022-11-09T22:16:49.290Z,25.88
2022-11-09T22:19:53.424Z,22.25
2022-11-09T22:22:38.867Z,28.73
2022-11-09T22:25:24.419Z,30.33
2022-11-09T22:28:10.010Z,34.35
2022-11-09T22:30:55.387Z,25.73
2022-11-09T22:33:40.994Z,35.03
2022-11-09T22:36:26.070Z,22.38
2022-11-09T22:39:11.453Z,31.70
2022-11-09T22:41:56.896Z,28.02
2022-11-09T22:44:42.543Z,27.08
2022-11-09T22:47:27.938Z,28.48
2022-11-09T22:50:13.614Z,22.17
2022-11-09T22:53:03.503Z,24.20
2022-11-09T22:55:57.326Z,36.42
2022-11-09T22:58:45.078Z,29.63
2022-11-09T23:01:30.766Z,33.92
2022-11-09T23:04:16.472Z,24.92
2022-11-09T23:07:01.764Z,41.13
2022-11-09T23:09:47.257Z,30.15
2022-11-09T23:12:33.744Z,33.30
2022-11-09T23:15:19.157Z,28.25
2022-11-09T23:18:23.240Z,28.25
2022-11-09T23:21:09.477Z,37.20
2022-11-09T23:23:56.900Z,33.80
2022-11-09T23:26:42.137Z,30.38
2022-11-09T23:29:27.853Z,30.23
2022-11-09T23:32:12.940Z,29.88
2022-11-09T23:34:58.660Z,27.45
2022-11-09T23:37:44.132Z,29.33
2022-11-09T23:40:31.437Z,25.15
2022-11-09T23:43:17.047Z,28.27
2022-11-09T23:46:04.749Z,34.25
2022-11-09T23:48:50.317Z,24.23
2022-11-09T23:51:35.651Z,25.75
2022-11-09T23:54:21.105Z,26.83
2022-11-09T23:57:15.642Z,28.73
